Time;durP1;ratioP1;P1;durP2;ratioP2;P2;SDS_P1;SDS_P2;PMS_P1;PMS_P2;Temp;Humidity;BMP_temperature;BMP_pressure;BME280_temperature;BME280_humidity;BME280_pressure;Samples;Min_cycle;Max_cycle;Signal;HPM_P1;HPM_P2
2021/09/13 00:01:33;;;;;;;21.80;19.70;;;;;;;16.81;73.25;100441.89;115808;1201;21907;-80
2021/09/13 00:04:04;;;;;;;21.00;19.10;;;;;;;16.80;73.38;100440.56;115875;1195;21898;-80
2021/09/13 00:06:34;;;;;;;23.10;20.80;;;;;;;16.78;73.37;100438.84;115429;1201;21911;-80
2021/09/13 00:09:04;;;;;;;24.10;21.90;;;;;;;16.78;73.51;100437.45;115709;1199;21896;-81
2021/09/13 00:11:33;;;;;;;22.30;19.70;;;;;;;16.79;73.55;100436.52;115472;1201;21916;-82
2021/09/13 00:14:03;;;;;;;22.40;20.30;;;;;;;16.78;73.67;100438.48;115708;1200;21910;-80
2021/09/13 00:16:33;;;;;;;22.30;20.40;;;;;;;16.79;73.66;100440.41;115547;1199;21886;-81
2021/09/13 00:19:02;;;;;;;25.80;23.40;;;;;;;16.78;73.62;100435.82;115963;1197;21907;-81
2021/09/13 00:21:32;;;;;;;23.70;21.50;;;;;;;16.78;73.74;100434.70;116196;1192;21890;-81
2021/09/13 00:24:02;;;;;;;24.40;22.10;;;;;;;16.73;73.41;100438.05;115799;1202;21908;-81
2021/09/13 00:26:33;;;;;;;24.50;22.20;;;;;;;16.67;73.33;100441.08;115775;1198;22129;-82
2021/09/13 00:29:02;;;;;;;24.70;22.50;;;;;;;16.63;73.78;100440.42;115951;1201;21961;-81
2021/09/13 00:31:32;;;;;;;26.40;23.80;;;;;;;16.65;74.06;100440.91;115683;1199;21910;-81
2021/09/13 00:34:04;;;;;;;27.00;24.30;;;;;;;16.67;73.95;100444.27;115339;1201;22963;-81
2021/09/13 00:36:34;;;;;;;24.60;22.40;;;;;;;16.67;74.03;100441.95;115188;1204;22906;-80
2021/09/13 00:39:03;;;;;;;26.40;23.90;;;;;;;16.66;73.88;100442.92;115195;1201;22775;-81
2021/09/13 00:41:35;;;;;;;24.50;22.20;;;;;;;16.64;73.77;100439.69;115270;1201;22943;-80
2021/09/13 00:44:05;;;;;;;26.90;24.50;;;;;;;16.62;73.86;100441.04;115655;1200;23586;-80
2021/09/13 00:46:35;;;;;;;28.20;25.40;;;;;;;16.60;74.01;100446.41;115688;1202;22297;-80
2021/09/13 00:49:04;;;;;;;26.10;23.60;;;;;;;16.59;74.02;100443.70;115280;1202;23566;-80
2021/09/13 00:51:34;;;;;;;27.40;24.80;;;;;;;16.59;73.99;100436.11;114839;1206;23536;-81
2021/09/13 00:54:03;;;;;;;27.50;24.80;;;;;;;16.58;73.89;100437.23;115154;1204;21903;-80
2021/09/13 00:56:32;;;;;;;26.50;23.80;;;;;;;16.57;73.93;100437.47;115210;1203;21910;-80
2021/09/13 00:59:02;;;;;;;27.00;24.50;;;;;;;16.54;73.84;100436.35;115218;1204;23518;-80
2021/09/13 01:01:31;;;;;;;26.80;24.30;;;;;;;16.52;73.98;100437.38;115215;1205;21908;-80
2021/09/13 01:04:01;;;;;;;28.00;25.30;;;;;;;16.49;73.98;100430.94;115334;1202;21889;-82
2021/09/13 01:06:30;;;;;;;28.40;25.80;;;;;;;16.46;74.10;100428.27;115497;1203;22948;-81
2021/09/13 01:09:00;;;;;;;27.10;24.70;;;;;;;16.45;74.14;100427.17;115210;1200;23512;-80
2021/09/13 01:11:30;;;;;;;28.60;25.90;;;;;;;16.44;74.21;100427.33;115688;1203;21909;-81
2021/09/13 01:13:59;;;;;;;27.70;25.20;;;;;;;16.43;74.27;100425.40;115721;1202;21904;-81
2021/09/13 01:16:29;;;;;;;23.60;21.50;;;;;;;16.43;74.37;100421.09;115523;1202;23435;-80
2021/09/13 01:18:59;;;;;;;25.00;22.50;;;;;;;16.44;74.59;100419.54;115460;1203;21907;-81
2021/09/13 01:21:31;;;;;;;26.60;24.00;;;;;;;16.44;74.52;100417.23;115756;1202;23145;-81
2021/09/13 01:24:00;;;;;;;25.30;23.00;;;;;;;16.44;74.63;100416.70;115722;1201;21914;-81
2021/09/13 01:26:31;;;;;;;24.40;22.10;;;;;;;16.45;74.64;100418.21;115284;1202;21990;-80
2021/09/13 01:29:00;;;;;;;26.00;23.60;;;;;;;16.45;74.70;100415.71;115375;1200;21911;-82
2021/09/13 01:31:34;;;;;;;26.10;23.30;;;;;;;16.45;74.81;100414.13;115619;1202;21909;-82
2021/09/13 01:34:03;;;;;;;26.80;24.20;;;;;;;16.45;74.75;100417.33;115333;1197;21889;-81
2021/09/13 01:36:33;;;;;;;28.60;25.90;;;;;;;16.45;74.88;100417.70;114953;1204;23484;-80
2021/09/13 01:39:07;;;;;;;28.70;25.90;;;;;;;16.44;74.88;100416.42;114825;1206;21924;-81
2021/09/13 01:41:37;;;;;;;29.20;26.40;;;;;;;16.44;75.03;100414.40;114931;1207;21908;-82
2021/09/13 01:44:06;;;;;;;28.50;25.90;;;;;;;16.45;75.10;100416.09;114886;1206;21933;-81
2021/09/13 01:46:37;;;;;;;29.00;26.40;;;;;;;16.46;75.08;100416.83;115243;1201;23468;-81
2021/09/13 01:49:11;;;;;;;27.30;24.80;;;;;;;16.47;74.93;100418.47;115498;1199;22223;-81
2021/09/13 01:51:40;;;;;;;28.70;25.90;;;;;;;16.46;74.78;100417.64;115472;1204;21952;-80
2021/09/13 01:54:09;;;;;;;27.60;25.00;;;;;;;16.45;74.70;100417.48;115352;1198;21898;-80
2021/09/13 01:56:39;;;;;;;28.70;26.10;;;;;;;16.41;74.53;100420.80;115859;1195;22944;-81
2021/09/13 01:59:12;;;;;;;28.00;25.30;;;;;;;16.37;74.55;100420.11;116169;1199;21990;-81
2021/09/13 02:01:41;;;;;;;29.20;26.60;;;;;;;16.36;74.89;100418.29;116310;1198;23599;-82
2021/09/13 02:04:11;;;;;;;27.50;25.00;;;;;;;16.38;75.04;100425.31;116187;1196;21897;-81
2021/09/13 02:06:40;;;;;;;27.90;25.40;;;;;;;16.40;75.05;100424.04;116208;1196;21921;-81
2021/09/13 02:09:10;;;;;;;29.60;26.70;;;;;;;16.41;75.00;100428.18;116364;1194;22992;-82
2021/09/13 02:11:40;;;;;;;27.40;24.90;;;;;;;16.42;74.95;100427.09;116165;1199;21960;-81
2021/09/13 02:14:09;;;;;;;26.80;24.30;;;;;;;16.41;74.86;100426.75;116365;1194;22906;-80
2021/09/13 02:16:39;;;;;;;28.20;25.20;;;;;;;16.40;74.88;100424.48;116157;1199;22016;-82
2021/09/13 02:19:09;;;;;;;26.70;24.00;;;;;;;16.40;74.89;100431.80;116090;1199;21943;-82
2021/09/13 02:21:38;;;;;;;30.20;27.30;;;;;;;16.38;74.77;100430.53;115887;1200;23610;-82
2021/09/13 02:24:09;;;;;;;28.60;26.10;;;;;;;16.35;74.79;100431.29;115720;1200;21946;-82
2021/09/13 02:26:40;;;;;;;28.70;26.00;;;;;;;16.32;74.80;100434.29;115889;1196;22482;-84
2021/09/13 02:29:10;;;;;;;32.90;26.60;;;;;;;16.29;74.97;100437.86;115390;1201;21925;-82
2021/09/13 02:31:39;;;;;;;28.90;26.10;;;;;;;16.29;75.08;100441.17;115199;1200;21938;-82
2021/09/13 02:34:09;;;;;;;30.00;27.40;;;;;;;16.29;75.22;100441.88;115253;1204;21911;-82
2021/09/13 02:36:39;;;;;;;29.60;27.00;;;;;;;16.27;74.95;100439.21;115132;1204;21947;-82
2021/09/13 02:39:09;;;;;;;27.60;25.30;;;;;;;16.24;75.06;100440.35;115118;1206;21924;-81
2021/09/13 02:41:46;;;;;;;27.40;25.10;;;;;;;16.21;75.13;100439.81;115349;1200;22969;-82
2021/09/13 02:44:16;;;;;;;28.10;25.70;;;;;;;16.21;75.15;100440.21;115363;1204;22991;-81
2021/09/13 02:46:45;;;;;;;27.20;24.70;;;;;;;16.20;75.17;100438.58;115162;1201;23334;-81
2021/09/13 02:49:15;;;;;;;27.80;25.20;;;;;;;16.18;75.15;100436.44;115380;1204;21950;-82
2021/09/13 02:51:44;;;;;;;26.90;24.50;;;;;;;16.18;75.17;100437.59;115330;1203;23476;-82
2021/09/13 02:54:14;;;;;;;28.60;25.80;;;;;;;16.16;75.08;100437.50;115089;1203;23582;-82
2021/09/13 02:56:45;;;;;;;27.00;24.30;;;;;;;16.15;75.30;100436.59;114792;1202;21946;-81
2021/09/13 02:59:15;;;;;;;26.70;24.30;;;;;;;16.13;75.18;100441.80;114847;1209;23087;-81
2021/09/13 03:01:45;;;;;;;27.30;25.00;;;;;;;16.12;75.24;100444.42;114999;1209;21908;-81
2021/09/13 03:04:15;;;;;;;27.00;24.50;;;;;;;16.10;75.27;100445.56;115008;1207;21969;-81
2021/09/13 03:06:45;;;;;;;26.70;24.20;;;;;;;16.08;75.50;100449.01;115025;1207;21917;-81
2021/09/13 03:09:14;;;;;;;26.80;24.30;;;;;;;16.08;75.56;100446.80;114999;1207;22765;-84
2021/09/13 03:11:44;;;;;;;26.20;23.90;;;;;;;16.08;75.73;100447.41;114895;1207;22922;-80
2021/09/13 03:14:13;;;;;;;26.40;23.90;;;;;;;16.09;75.82;100447.30;114935;1201;24852;-81
2021/09/13 03:16:43;;;;;;;27.70;25.30;;;;;;;16.10;75.92;100449.70;115475;1202;21914;-82
2021/09/13 03:19:13;;;;;;;27.70;24.90;;;;;;;16.10;75.85;100450.69;115668;1198;23682;-81
2021/09/13 03:21:47;;;;;;;27.50;24.90;;;;;;;16.10;75.78;100447.95;115465;1201;21896;-81
2021/09/13 03:24:17;;;;;;;27.90;25.20;;;;;;;16.08;75.54;100444.70;115895;1198;23562;-82
2021/09/13 03:26:47;;;;;;;28.80;26.00;;;;;;;16.06;75.43;100449.61;115930;1202;21989;-81
2021/09/13 03:29:17;;;;;;;28.20;25.40;;;;;;;16.03;75.47;100449.33;115690;1196;23478;-81
2021/09/13 03:31:47;;;;;;;29.80;26.90;;;;;;;16.01;75.41;100451.15;116330;1195;23464;-82
2021/09/13 03:34:17;;;;;;;30.20;27.10;;;;;;;15.98;75.51;100455.79;116385;1196;22209;-82
2021/09/13 03:36:47;;;;;;;31.70;28.50;;;;;;;15.94;75.30;100456.83;115920;1199;22933;-81
2021/09/13 03:39:16;;;;;;;31.00;27.90;;;;;;;15.91;75.44;100459.00;115670;1201;22632;-81
2021/09/13 03:41:47;;;;;;;29.40;26.70;;;;;;;15.91;75.74;100454.82;115639;1199;21935;-81
2021/09/13 03:44:16;;;;;;;30.20;27.20;;;;;;;15.90;75.92;100453.52;115986;1198;21938;-81
2021/09/13 03:46:46;;;;;;;30.60;27.40;;;;;;;15.91;75.97;100453.39;115831;1201;21901;-80
2021/09/13 03:49:31;;;;;;;29.30;26.60;;;;;;;15.90;76.06;100457.23;115911;1201;21907;-80
2021/09/13 03:52:01;;;;;;;31.90;29.00;;;;;;;15.89;76.05;100457.35;115861;1202;23017;-81
2021/09/13 03:54:31;;;;;;;29.60;26.80;;;;;;;15.89;76.17;100456.38;115856;1195;23689;-81
2021/09/13 03:57:00;;;;;;;28.90;26.20;;;;;;;15.89;76.35;100456.38;116265;1197;21904;-80
2021/09/13 03:59:31;;;;;;;30.70;27.80;;;;;;;15.89;76.46;100452.61;116275;1194;22388;-81
2021/09/13 04:02:02;;;;;;;31.30;28.70;;;;;;;15.89;76.46;100454.33;116147;1196;21891;-81
2021/09/13 04:04:33;;;;;;;29.50;27.00;;;;;;;15.88;76.54;100456.05;115928;1196;21961;-81
2021/09/13 04:13:14;;;;;;;32.90;29.30;;;;;;;15.84;76.71;100462.34;115555;1201;21891;-80
2021/09/13 04:15:58;;;;;;;29.30;27.00;;;;;;;15.81;76.82;100463.23;115884;1198;21933;-80
2021/09/13 04:18:48;;;;;;;30.40;27.70;;;;;;;15.81;76.90;100462.23;116090;1198;22234;-81
2021/09/13 04:21:33;;;;;;;30.40;27.60;;;;;;;15.81;77.01;100459.69;115821;1199;22848;-82
2021/09/13 04:24:22;;;;;;;27.90;25.50;;;;;;;15.81;77.17;100460.03;116092;1197;21910;-84
2021/09/13 04:27:06;;;;;;;30.80;27.80;;;;;;;15.82;77.33;100459.22;116017;1199;21900;-81
2021/09/13 04:29:54;;;;;;;33.60;30.60;;;;;;;15.82;77.24;100457.99;115995;1197;21914;-83
2021/09/13 04:32:23;;;;;;;34.80;30.40;;;;;;;15.83;77.26;100462.65;116120;1200;21920;-84
2021/09/13 04:36:05;;;;;;;32.50;29.20;;;;;;;15.83;77.20;100463.39;116240;1196;21912;-81
2021/09/13 04:39:21;;;;;;;28.60;25.90;;;;;;;15.79;77.45;100467.90;115482;1200;23590;-82
2021/09/13 04:42:10;;;;;;;32.10;28.70;;;;;;;15.82;77.56;100468.59;115468;1205;23650;-81
2021/09/13 04:44:59;;;;;;;30.90;27.20;;;;;;;15.86;77.67;100469.43;115592;1201;21910;-82
2021/09/13 04:47:45;;;;;;;30.20;27.20;;;;;;;15.91;77.78;100469.73;115517;1202;22191;-82
2021/09/13 04:50:33;;;;;;;33.30;28.20;;;;;;;15.95;77.77;100470.83;115441;1202;21931;-82
2021/09/13 04:53:20;;;;;;;31.90;28.90;;;;;;;15.99;78.00;100472.43;115143;1204;22311;-80
2021/09/13 04:55:51;;;;;;;30.00;27.30;;;;;;;16.04;77.93;100474.23;115113;1206;21902;-81
2021/09/13 04:58:21;;;;;;;31.00;27.90;;;;;;;16.09;77.90;100480.87;115156;1203;23473;-80
2021/09/13 05:00:50;;;;;;;31.50;28.40;;;;;;;16.14;77.94;100476.85;115120;1204;21902;-81
2021/09/13 05:03:20;;;;;;;30.80;27.90;;;;;;;16.20;77.92;100483.23;115111;1203;21936;-82
2021/09/13 05:05:50;;;;;;;30.60;27.60;;;;;;;16.26;77.87;100485.30;115153;1206;21895;-81
2021/09/13 05:08:20;;;;;;;29.40;26.60;;;;;;;16.30;77.86;100483.09;115138;1206;21920;-81
2021/09/13 05:10:50;;;;;;;28.30;25.90;;;;;;;16.35;77.99;100483.02;115171;1201;23157;-83
2021/09/13 05:13:20;;;;;;;29.20;25.00;;;;;;;16.40;78.00;100484.05;115446;1204;21929;-83
2021/09/13 05:15:50;;;;;;;28.80;26.20;;;;;;;16.46;77.96;100485.70;115316;1199;21925;-82
2021/09/13 05:18:19;;;;;;;29.50;27.00;;;;;;;16.53;77.86;100484.56;115858;1200;21917;-82
2021/09/13 05:20:49;;;;;;;28.80;26.20;;;;;;;16.58;77.93;100488.63;115896;1200;21919;-82
2021/09/13 05:23:23;;;;;;;29.30;26.20;;;;;;;16.63;77.99;100489.69;115898;1199;21906;-82
2021/09/13 05:25:53;;;;;;;27.90;25.10;;;;;;;16.69;77.80;100493.15;115738;1199;22954;-81
2021/09/13 05:28:23;;;;;;;27.30;25.00;;;;;;;16.76;77.93;100495.23;115412;1199;21905;-82
2021/09/13 05:30:53;;;;;;;27.50;25.30;;;;;;;16.81;77.72;100494.71;115960;1202;21900;-82
2021/09/13 05:33:23;;;;;;;29.10;26.70;;;;;;;16.86;77.48;100497.63;115386;1202;21927;-81
2021/09/13 05:35:53;;;;;;;28.00;25.80;;;;;;;16.91;77.43;100494.37;115770;1201;22936;-82
2021/09/13 05:38:24;;;;;;;28.30;25.90;;;;;;;16.96;77.32;100496.39;115469;1201;22926;-82
2021/09/13 05:40:54;;;;;;;27.60;25.30;;;;;;;17.01;77.07;100500.73;115417;1201;23784;-82
2021/09/13 05:43:23;;;;;;;27.30;24.90;;;;;;;17.07;77.11;100499.70;115631;1204;22968;-82
2021/09/13 05:45:54;;;;;;;27.70;25.10;;;;;;;17.12;76.84;100502.13;115480;1201;21953;-82
2021/09/13 05:48:24;;;;;;;27.10;24.70;;;;;;;17.17;76.73;100500.33;116125;1199;21948;-82
2021/09/13 05:50:54;;;;;;;25.20;23.00;;;;;;;17.21;76.68;100504.54;115744;1201;21917;-82
2021/09/13 05:53:24;;;;;;;26.30;24.10;;;;;;;17.26;76.39;100505.11;115496;1201;21904;-82
2021/09/13 05:55:54;;;;;;;25.60;23.50;;;;;;;17.31;76.33;100510.08;115362;1199;22973;-82
2021/09/13 05:58:26;;;;;;;26.40;24.10;;;;;;;17.33;76.27;100506.86;115681;1201;23691;-82
2021/09/13 06:00:55;;;;;;;;;;;;;;;17.36;76.25;100513.55;115501;1201;22904;-84
2021/09/13 06:03:45;;;;;;;23.90;21.50;;;;;;;17.34;76.32;100516.52;115312;1201;23507;-82
2021/09/13 06:06:18;;;;;;;23.60;21.60;;;;;;;17.38;76.21;100511.58;115366;1202;22556;-82
2021/09/13 06:08:48;;;;;;;24.80;22.50;;;;;;;17.43;76.07;100516.53;115364;1201;22022;-80
2021/09/13 06:11:19;;;;;;;24.60;22.70;;;;;;;17.47;75.79;100516.25;115532;1198;21962;-82
2021/09/13 06:13:50;;;;;;;24.00;21.90;;;;;;;17.51;75.76;100519.20;115460;1204;22008;-82
2021/09/13 06:16:21;;;;;;;25.90;23.60;;;;;;;17.57;75.76;100520.04;115409;1198;21914;-82
2021/09/13 06:18:51;;;;;;;25.50;23.10;;;;;;;17.62;75.50;100521.11;115570;1200;24402;-81
2021/09/13 06:21:20;;;;;;;26.50;24.20;;;;;;;17.68;75.81;100522.02;115731;1200;22851;-82
2021/09/13 06:23:50;;;;;;;24.70;22.50;;;;;;;17.75;75.55;100518.95;115774;1196;21913;-82
2021/09/13 06:26:19;;;;;;;25.90;23.80;;;;;;;17.81;75.44;100514.02;115400;1204;22884;-81
2021/09/13 06:28:49;;;;;;;28.30;23.40;;;;;;;17.91;75.45;100514.52;115585;1201;22150;-84
2021/09/13 06:31:19;;;;;;;26.80;24.20;;;;;;;18.08;75.96;100512.27;115434;1201;23474;-83
2021/09/13 06:33:49;;;;;;;24.90;22.60;;;;;;;18.25;75.50;100511.91;115582;1201;21997;-83
2021/09/13 06:36:18;;;;;;;23.30;21.30;;;;;;;18.40;75.02;100515.12;115560;1201;21900;-82
2021/09/13 06:38:49;;;;;;;23.60;21.70;;;;;;;18.59;74.97;100514.45;115421;1203;21897;-83
2021/09/13 06:41:19;;;;;;;23.30;21.00;;;;;;;18.77;74.38;100513.52;115490;1201;21928;-82
2021/09/13 06:43:52;;;;;;;21.50;19.40;;;;;;;18.97;74.18;100512.13;115636;1198;21957;-83
2021/09/13 06:46:35;;;;;;;20.10;18.20;;;;;;;19.13;73.18;100516.93;115433;1202;21908;-82
2021/09/13 06:49:06;;;;;;;21.10;19.40;;;;;;;19.30;73.00;100514.84;115404;1201;22925;-82
2021/09/13 06:51:35;;;;;;;23.30;21.10;;;;;;;19.51;72.51;100512.86;115260;1203;21904;-81
2021/09/13 06:54:05;;;;;;;19.40;17.60;;;;;;;19.71;72.04;100511.63;115292;1204;21969;-82
2021/09/13 06:56:34;;;;;;;19.90;17.90;;;;;;;20.00;72.23;100516.10;115489;1203;22923;-83
2021/09/13 06:59:03;;;;;;;21.00;19.20;;;;;;;20.42;72.27;100518.90;115943;1202;22019;-82
2021/09/13 07:01:33;;;;;;;21.00;19.00;;;;;;;20.80;70.82;100523.20;115655;1201;21935;-82
2021/09/13 07:04:03;;;;;;;18.60;17.10;;;;;;;21.05;68.70;100524.64;115587;1201;23556;-83
2021/09/13 07:06:33;;;;;;;18.20;16.70;;;;;;;21.23;67.64;100521.27;115807;1200;22817;-82
2021/09/13 07:09:03;;;;;;;20.50;18.60;;;;;;;21.47;67.14;100524.57;115828;1199;21913;-82
2021/09/13 07:11:33;;;;;;;18.20;16.70;;;;;;;21.73;67.06;100530.84;115860;1200;22069;-82
2021/09/13 07:14:07;;;;;;;16.40;14.90;;;;;;;22.12;66.11;100528.30;115821;1200;24262;-82
2021/09/13 07:16:37;;;;;;;15.30;14.00;;;;;;;22.36;64.22;100527.05;115669;1201;22969;-82
2021/09/13 07:19:07;;;;;;;15.70;14.30;;;;;;;22.50;62.96;100532.84;115069;1204;22263;-80
2021/09/13 07:21:41;;;;;;;16.60;15.30;;;;;;;22.57;61.83;100534.63;115490;1202;24214;-85
2021/09/13 07:24:10;;;;;;;21.50;16.70;;;;;;;22.55;61.20;100535.80;115204;1201;23628;-81
2021/09/13 07:26:40;;;;;;;16.10;14.80;;;;;;;22.53;61.90;100536.39;115082;1200;21990;-80
2021/09/13 07:29:09;;;;;;;26.80;14.10;;;;;;;22.72;63.10;100537.15;115355;1204;21906;-81
2021/09/13 07:31:39;;;;;;;15.40;14.10;;;;;;;22.96;62.66;100540.52;115131;1201;23474;-81
2021/09/13 07:34:10;;;;;;;15.60;13.90;;;;;;;23.18;61.56;100540.18;115230;1201;23676;-81
2021/09/13 07:36:39;;;;;;;14.60;13.30;;;;;;;23.19;59.46;100543.33;115543;1197;21896;-80
2021/09/13 07:39:09;;;;;;;14.50;13.30;;;;;;;23.12;59.85;100546.95;115514;1201;22248;-83
2021/09/13 07:41:39;;;;;;;16.80;13.50;;;;;;;23.18;60.26;100546.37;115473;1203;24123;-83
2021/09/13 07:44:09;;;;;;;13.00;11.90;;;;;;;23.30;60.32;100546.93;115504;1202;21907;-83
2021/09/13 07:46:39;;;;;;;15.20;12.80;;;;;;;23.49;60.44;100550.70;115857;1199;21895;-83
2021/09/13 07:49:10;;;;;;;12.80;11.60;;;;;;;23.65;59.57;100549.41;115883;1195;21914;-83
2021/09/13 07:51:47;;;;;;;11.60;10.60;;;;;;;23.82;59.18;100550.80;115853;1200;22090;-83
2021/09/13 07:54:20;;;;;;;11.40;10.50;;;;;;;24.00;58.64;100549.52;115372;1201;21905;-83
2021/09/13 07:56:50;;;;;;;11.50;10.50;;;;;;;24.16;57.78;100554.23;115047;1205;21915;-84
2021/09/13 07:59:23;;;;;;;12.20;11.30;;;;;;;24.10;56.06;100556.59;115059;1203;21926;-84
2021/09/13 08:01:54;;;;;;;10.80;9.80;;;;;;;23.94;55.97;100555.97;114908;1203;21917;-83
2021/09/13 08:04:25;;;;;;;13.20;12.00;;;;;;;23.80;56.25;100555.52;115112;1205;21930;-84
2021/09/13 08:06:58;;;;;;;14.80;13.20;;;;;;;23.71;56.77;100553.03;115173;1206;21912;-83
2021/09/13 08:09:32;;;;;;;13.10;11.70;;;;;;;23.75;57.42;100555.03;115214;1204;22141;-85
2021/09/13 08:12:07;;;;;;;11.60;10.50;;;;;;;23.77;56.74;100554.90;115331;1207;21920;-84
2021/09/13 08:14:45;;;;;;;11.90;10.70;;;;;;;23.81;57.02;100556.30;115517;1207;21908;-87
2021/09/13 08:18:19;;;;;;;12.30;10.90;;;;;;;23.76;56.31;100560.12;115549;1209;21999;-87
2021/09/13 08:21:57;;;;;;;12.70;10.70;;;;;;;23.63;56.45;100560.79;116112;1203;21882;-85
2021/09/13 08:25:55;;;;;;;12.60;11.40;;;;;;;23.63;56.89;100563.73;116105;1205;21898;-87
2021/09/13 08:29:40;;;;;;;11.40;10.10;;;;;;;23.67;56.80;100566.41;115708;1206;21905;-87
2021/09/13 08:33:40;;;;;;;12.10;10.90;;;;;;;23.74;56.51;100573.02;115604;1209;21929;-87
2021/09/13 08:37:55;;;;;;;12.60;10.10;;;;;;;23.80;56.16;100572.67;115502;1209;24092;-87
2021/09/13 08:41:43;;;;;;;9.20;7.90;;;;;;;24.07;56.67;100573.66;115485;1209;21930;-87
2021/09/13 08:45:55;;;;;;;10.10;9.20;;;;;;;24.21;55.42;100576.70;115729;1206;21703;-86
2021/09/13 08:49:24;;;;;;;;;;;;;;;;;;;;;
2021/09/13 08:53:30;;;;;;;8.80;8.00;;;;;;;24.12;53.96;100578.91;117150;1195;21906;-87
2021/09/13 09:04:08;;;;;;;10.50;9.40;;;;;;;23.56;54.42;100581.83;117424;1195;22587;-86
2021/09/13 09:07:51;;;;;;;;;;;;;;;;;;;;;
2021/09/13 09:34:53;;;;;;;9.00;5.20;;;;;;;24.03;53.32;100579.97;117183;1194;21913;-86
2021/09/13 09:42:47;;;;;;;6.70;5.30;;;;;;;25.30;50.41;100578.06;117113;1196;22546;-87
2021/09/13 09:45:21;;;;;;;5.30;4.80;;;;;;;25.75;49.27;100581.05;116823;1197;21955;-88
2021/09/13 09:48:45;;;;;;;5.70;4.70;;;;;;;26.16;47.09;100580.41;117018;1196;21909;-86
2021/09/13 09:52:00;;;;;;;5.70;4.70;;;;;;;26.31;45.60;100581.39;116764;1196;21912;-86
2021/09/13 09:55:19;;;;;;;9.00;5.30;;;;;;;26.52;44.98;100580.59;116288;1200;21917;-87
2021/09/13 09:58:34;;;;;;;6.10;5.20;;;;;;;26.52;44.03;100581.70;116157;1200;22179;-86
2021/09/13 10:02:14;;;;;;;7.70;5.40;;;;;;;26.45;43.86;100581.65;116109;1202;22376;-87
2021/09/13 10:05:19;;;;;;;5.10;4.50;;;;;;;26.57;44.20;100581.05;115850;1204;22970;-88
2021/09/13 10:08:18;;;;;;;5.80;4.80;;;;;;;26.65;43.47;100582.41;115706;1208;21920;-86
2021/09/13 10:11:39;;;;;;;7.30;4.20;;;;;;;26.69;42.79;100585.40;115527;1207;21896;-88
2021/09/13 10:14:25;;;;;;;4.20;3.80;;;;;;;26.58;42.01;100588.36;115195;1210;22672;-87
2021/09/13 10:18:00;;;;;;;5.70;4.00;;;;;;;26.41;42.01;100588.36;115466;1210;21920;-86
2021/09/13 10:21:12;;;;;;;5.80;3.40;;;;;;;26.33;42.14;100593.05;115441;1210;22093;-87
2021/09/13 10:24:35;;;;;;;8.20;4.10;;;;;;;26.40;42.03;100592.85;115631;1207;24176;-86
2021/09/13 10:27:51;;;;;;;4.40;3.50;;;;;;;26.76;41.29;100593.16;115748;1205;21921;-87
2021/09/13 10:30:51;;;;;;;7.40;4.40;;;;;;;26.89;40.47;100592.09;116054;1202;23722;-87
2021/09/13 10:34:24;;;;;;;6.20;3.70;;;;;;;27.06;39.79;100589.22;116344;1199;21917;-86
2021/09/13 10:37:20;;;;;;;8.30;4.00;;;;;;;27.32;39.79;100587.59;115768;1203;21922;-86
2021/09/13 10:40:44;;;;;;;6.20;4.50;;;;;;;27.41;39.17;100588.45;116010;1199;21920;-87
2021/09/13 10:44:35;;;;;;;7.80;4.60;;;;;;;27.41;38.80;100581.17;115665;1205;21930;-87
2021/09/13 10:48:02;;;;;;;6.20;4.70;;;;;;;27.46;39.07;100579.38;115376;1210;21648;-83
2021/09/13 10:51:13;;;;;;;5.70;4.50;;;;;;;27.30;38.43;100582.11;115388;1208;21924;-85
2021/09/13 10:54:14;;;;;;;5.70;4.30;;;;;;;26.80;38.70;100584.38;115153;1212;21891;-87
2021/09/13 10:57:08;;;;;;;4.90;3.90;;;;;;;26.52;39.86;100585.52;115256;1211;22271;-86
2021/09/13 11:00:12;;;;;;;6.10;4.80;;;;;;;26.33;39.96;100586.81;115108;1216;22202;-86
2021/09/13 11:03:36;;;;;;;8.20;5.70;;;;;;;25.97;40.41;100588.80;115130;1212;22436;-87
2021/09/13 11:06:50;;;;;;;5.80;4.20;;;;;;;25.56;41.38;100586.45;115459;1210;21994;-86
2021/09/13 11:09:55;;;;;;;5.60;3.60;;;;;;;25.22;42.12;100587.09;115507;1210;21930;-87
2021/09/13 11:12:52;;;;;;;5.70;4.50;;;;;;;24.95;42.21;100585.06;115392;1209;21916;-86
2021/09/13 11:15:55;;;;;;;8.60;5.30;;;;;;;24.78;42.67;100584.05;115692;1204;21916;-86
2021/09/13 11:18:49;;;;;;;6.50;4.30;;;;;;;24.70;43.07;100581.01;116074;1200;23468;-86
2021/09/13 11:22:03;;;;;;;4.70;3.60;;;;;;;24.62;42.75;100583.76;115967;1201;22127;-87
2021/09/13 11:25:26;;;;;;;5.60;3.70;;;;;;;24.49;42.91;100583.45;115949;1203;23473;-87
2021/09/13 11:29:03;;;;;;;6.50;3.60;;;;;;;24.41;43.37;100584.33;115705;1203;21953;-86
2021/09/13 11:32:20;;;;;;;13.60;4.40;;;;;;;24.37;43.55;100578.75;116181;1199;23480;-87
2021/09/13 11:34:55;;;;;;;5.20;3.90;;;;;;;24.36;43.65;100581.94;116380;1202;21887;-86
2021/09/13 11:38:05;;;;;;;6.30;4.20;;;;;;;24.30;43.45;100582.88;116223;1199;21935;-88
2021/09/13 11:40:55;;;;;;;8.30;3.90;;;;;;;24.19;43.71;100581.52;116537;1200;21952;-85
2021/09/13 11:43:30;;;;;;;5.20;4.30;;;;;;;24.12;43.98;100578.64;115876;1203;23485;-86
2021/09/13 11:46:56;;;;;;;6.50;4.20;;;;;;;24.08;44.26;100577.35;115584;1204;22992;-86
2021/09/13 11:49:55;;;;;;;5.30;4.40;;;;;;;24.12;44.16;100577.08;115636;1204;23678;-86
2021/09/13 11:52:44;;;;;;;5.30;4.10;;;;;;;24.13;43.88;100573.48;115624;1204;22161;-86
2021/09/13 11:55:46;;;;;;;10.80;4.10;;;;;;;24.20;43.69;100578.13;115640;1204;21907;-87
2021/09/13 11:59:18;;;;;;;5.00;4.10;;;;;;;24.29;43.26;100583.53;115719;1204;22634;-85
2021/09/13 12:02:11;;;;;;;7.00;4.20;;;;;;;24.32;43.22;100577.95;116249;1204;21921;-87
2021/09/13 12:06:11;;;;;;;;;;;;;;;;;;;;;
2021/09/13 12:10:13;;;;;;;10.10;3.50;;;;;;;24.21;43.02;100574.58;117152;1196;21912;-88
2021/09/13 12:14:00;;;;;;;4.10;3.50;;;;;;;24.15;42.75;100575.71;116880;1201;22004;-87
2021/09/13 12:17:39;;;;;;;;;;;;;;;23.91;43.01;100572.73;116293;1201;22285;-86
2021/09/13 12:20:53;;;;;;;4.80;3.30;;;;;;;23.72;43.41;100569.61;115913;1206;21939;-87
2021/09/13 12:24:39;;;;;;;5.60;4.10;;;;;;;23.64;43.73;100570.77;115877;1206;23634;-86
2021/09/13 12:28:29;;;;;;;;;;;;;;;;;;;;;
2021/09/13 12:31:35;;;;;;;7.00;6.20;;;;;;;23.44;44.16;100577.13;115877;1205;22005;-87
2021/09/13 12:34:28;;;;;;;4.90;3.40;;;;;;;23.42;44.03;100578.27;115782;1206;21911;-86
2021/09/13 12:37:43;;;;;;;6.20;3.80;;;;;;;23.37;44.17;100578.42;115591;1207;21893;-86
2021/09/13 12:40:23;;;;;;;6.40;3.40;;;;;;;23.31;44.47;100575.73;115563;1204;22038;-86
2021/09/13 12:43:15;;;;;;;5.40;3.90;;;;;;;23.24;44.55;100575.31;115435;1206;21634;-85
2021/09/13 12:46:25;;;;;;;;;;;;;;;;;;;;;
2021/09/13 12:49:29;;;;;;;;;;;;;;;;;;;;;
2021/09/13 12:52:26;;;;;;;7.30;4.00;;;;;;;23.17;44.96;100576.38;115631;1207;21934;-87
2021/09/13 12:55:20;;;;;;;6.90;3.50;;;;;;;23.21;45.13;100575.36;115648;1209;21933;-86
2021/09/13 12:58:47;;;;;;;5.90;3.30;;;;;;;23.24;44.79;100566.95;115690;1207;21982;-86
2021/09/13 13:02:18;;;;;;;5.90;2.90;;;;;;;23.26;44.55;100570.22;115992;1204;21877;-86
2021/09/13 13:05:01;;;;;;;7.00;3.60;;;;;;;23.20;44.36;100570.98;116025;1201;21920;-86
2021/09/13 13:08:23;;;;;;;8.60;3.40;;;;;;;23.13;44.34;100569.05;116066;1205;21931;-87
2021/09/13 13:11:25;;;;;;;6.20;3.40;;;;;;;23.05;44.37;100566.98;115912;1201;21930;-86
2021/09/13 13:14:06;;;;;;;5.60;3.20;;;;;;;23.02;44.56;100570.80;115865;1204;22258;-86
2021/09/13 13:16:49;;;;;;;7.20;3.20;;;;;;;23.01;44.60;100568.04;116015;1201;21881;-86
2021/09/13 13:19:45;;;;;;;6.90;3.00;;;;;;;23.00;44.42;100564.48;115704;1205;21903;-87